sensor_id;sensor_type;location;lat;lon;timestamp;temperature;humidity
44166;DHT22;30476;53.468;9.826;2023-03-01T00:01:25;0.60;99.70
44166;DHT22;30476;53.468;9.826;2023-03-01T00:03:52;0.60;99.60
44166;DHT22;30476;53.468;9.826;2023-03-01T00:06:19;0.50;99.60
44166;DHT22;30476;53.468;9.826;2023-03-01T00:08:45;0.50;99.70
44166;DHT22;30476;53.468;9.826;2023-03-01T00:11:24;0.50;99.70
44166;DHT22;30476;53.468;9.826;2023-03-01T00:13:52;0.50;99.70
44166;DHT22;30476;53.468;9.826;2023-03-01T00:16:27;0.50;99.90
44166;DHT22;30476;53.468;9.826;2023-03-01T00:18:54;0.40;99.90
44166;DHT22;30476;53.468;9.826;2023-03-01T00:21:21;0.50;99.90
44166;DHT22;30476;53.468;9.826;2023-03-01T00:23:48;0.50;99.90
44166;DHT22;30476;53.468;9.826;2023-03-01T00:26:15;0.40;99.90
44166;DHT22;30476;53.468;9.826;2023-03-01T00:28:42;0.50;99.90
44166;DHT22;30476;53.468;9.826;2023-03-01T00:31:10;0.40;99.90
44166;DHT22;30476;53.468;9.826;2023-03-01T00:33:36;0.40;99.90
44166;DHT22;30476;53.468;9.826;2023-03-01T00:36:03;0.40;99.90
44166;DHT22;30476;53.468;9.826;2023-03-01T00:38:29;0.40;99.90
44166;DHT22;30476;53.468;9.826;2023-03-01T00:40:55;0.40;99.90
44166;DHT22;30476;53.468;9.826;2023-03-01T00:43:21;0.30;99.90
44166;DHT22;30476;53.468;9.826;2023-03-01T00:45:47;0.30;99.90
44166;DHT22;30476;53.468;9.826;2023-03-01T00:48:13;0.30;99.90
44166;DHT22;30476;53.468;9.826;2023-03-01T00:50:38;0.30;99.90
44166;DHT22;30476;53.468;9.826;2023-03-01T00:53:04;0.30;99.90
44166;DHT22;30476;53.468;9.826;2023-03-01T00:55:30;0.30;99.90
44166;DHT22;30476;53.468;9.826;2023-03-01T00:57:56;0.20;99.90
44166;DHT22;30476;53.468;9.826;2023-03-01T01:00:22;0.10;99.90
44166;DHT22;30476;53.468;9.826;2023-03-01T01:02:48;0.10;99.90
44166;DHT22;30476;53.468;9.826;2023-03-01T01:05:14;0.10;99.90
44166;DHT22;30476;53.468;9.826;2023-03-01T01:07:45;0.10;99.90
44166;DHT22;30476;53.468;9.826;2023-03-01T01:10:11;0.10;99.90
44166;DHT22;30476;53.468;9.826;2023-03-01T01:12:44;0.10;99.90
44166;DHT22;30476;53.468;9.826;2023-03-01T01:15:10;0.20;99.90
44166;DHT22;30476;53.468;9.826;2023-03-01T01:17:38;0.20;99.90
44166;DHT22;30476;53.468;9.826;2023-03-01T01:20:04;0.20;99.90
44166;DHT22;30476;53.468;9.826;2023-03-01T01:22:30;0.10;99.90
44166;DHT22;30476;53.468;9.826;2023-03-01T01:24:56;0.10;99.90
44166;DHT22;30476;53.468;9.826;2023-03-01T01:27:22;0.10;99.90
44166;DHT22;30476;53.468;9.826;2023-03-01T01:29:48;0.20;99.90
44166;DHT22;30476;53.468;9.826;2023-03-01T01:32:14;0.20;99.90
44166;DHT22;30476;53.468;9.826;2023-03-01T01:34:39;0.20;99.90
44166;DHT22;30476;53.468;9.826;2023-03-01T01:37:05;0.20;99.90
44166;DHT22;30476;53.468;9.826;2023-03-01T01:39:34;0.20;99.90
44166;DHT22;30476;53.468;9.826;2023-03-01T01:42:01;0.20;99.90
44166;DHT22;30476;53.468;9.826;2023-03-01T01:44:28;0.20;99.90
44166;DHT22;30476;53.468;9.826;2023-03-01T01:47:06;0.20;99.90
44166;DHT22;30476;53.468;9.826;2023-03-01T01:49:37;0.20;99.90
44166;DHT22;30476;53.468;9.826;2023-03-01T01:54:45;0.10;99.90
44166;DHT22;30476;53.468;9.826;2023-03-01T01:57:20;0.10;99.90
44166;DHT22;30476;53.468;9.826;2023-03-01T01:59:51;0.10;99.90
44166;DHT22;30476;53.468;9.826;2023-03-01T02:02:18;0.10;99.90
44166;DHT22;30476;53.468;9.826;2023-03-01T02:04:46;0.10;99.90
44166;DHT22;30476;53.468;9.826;2023-03-01T02:07:17;0.10;99.90
44166;DHT22;30476;53.468;9.826;2023-03-01T02:09:47;0.10;99.90
44166;DHT22;30476;53.468;9.826;2023-03-01T02:12:15;0.10;99.90
44166;DHT22;30476;53.468;9.826;2023-03-01T02:14:42;0.10;99.90
44166;DHT22;30476;53.468;9.826;2023-03-01T02:17:09;0.20;99.90
44166;DHT22;30476;53.468;9.826;2023-03-01T02:19:59;0.10;99.90
44166;DHT22;30476;53.468;9.826;2023-03-01T02:22:31;0.10;99.90
44166;DHT22;30476;53.468;9.826;2023-03-01T02:27:58;0.10;99.90
44166;DHT22;30476;53.468;9.826;2023-03-01T02:30:27;0.10;99.90
44166;DHT22;30476;53.468;9.826;2023-03-01T02:32:56;0.10;99.90
44166;DHT22;30476;53.468;9.826;2023-03-01T02:35:32;0.20;99.90
44166;DHT22;30476;53.468;9.826;2023-03-01T02:38:00;0.20;99.90
44166;DHT22;30476;53.468;9.826;2023-03-01T02:40:29;0.10;99.90
44166;DHT22;30476;53.468;9.826;2023-03-01T02:42:59;0.10;99.90
44166;DHT22;30476;53.468;9.826;2023-03-01T02:45:26;0.10;99.90
44166;DHT22;30476;53.468;9.826;2023-03-01T02:47:56;0.10;99.90
44166;DHT22;30476;53.468;9.826;2023-03-01T02:53:16;0.10;99.90
44166;DHT22;30476;53.468;9.826;2023-03-01T02:55:42;0.00;99.90
44166;DHT22;30476;53.468;9.826;2023-03-01T02:58:08;0.00;99.90
44166;DHT22;30476;53.468;9.826;2023-03-01T03:00:38;0.00;99.90
44166;DHT22;30476;53.468;9.826;2023-03-01T03:03:06;0.00;99.90
44166;DHT22;30476;53.468;9.826;2023-03-01T03:05:33;0.10;99.90
44166;DHT22;30476;53.468;9.826;2023-03-01T03:08:02;0.10;99.90
44166;DHT22;30476;53.468;9.826;2023-03-01T03:10:33;0.10;99.90
44166;DHT22;30476;53.468;9.826;2023-03-01T03:13:02;0.10;99.90
44166;DHT22;30476;53.468;9.826;2023-03-01T03:15:29;0.10;99.90
44166;DHT22;30476;53.468;9.826;2023-03-01T03:17:56;0.00;99.90
44166;DHT22;30476;53.468;9.826;2023-03-01T03:20:24;0.10;99.90
44166;DHT22;30476;53.468;9.826;2023-03-01T03:22:52;0.20;99.90
44166;DHT22;30476;53.468;9.826;2023-03-01T03:25:19;0.20;99.90
44166;DHT22;30476;53.468;9.826;2023-03-01T03:27:47;0.20;99.90
44166;DHT22;30476;53.468;9.826;2023-03-01T03:30:18;0.20;99.90
44166;DHT22;30476;53.468;9.826;2023-03-01T03:32:46;0.20;99.90
44166;DHT22;30476;53.468;9.826;2023-03-01T03:35:28;0.30;99.90
44166;DHT22;30476;53.468;9.826;2023-03-01T03:37:56;0.30;99.90
44166;DHT22;30476;53.468;9.826;2023-03-01T03:40:36;0.30;99.90
44166;DHT22;30476;53.468;9.826;2023-03-01T03:43:16;0.30;99.90
44166;DHT22;30476;53.468;9.826;2023-03-01T03:45:47;0.30;99.90
44166;DHT22;30476;53.468;9.826;2023-03-01T03:48:14;0.30;99.90
44166;DHT22;30476;53.468;9.826;2023-03-01T03:50:40;0.20;99.90
44166;DHT22;30476;53.468;9.826;2023-03-01T03:53:08;0.20;99.90
44166;DHT22;30476;53.468;9.826;2023-03-01T03:55:34;0.30;99.90
44166;DHT22;30476;53.468;9.826;2023-03-01T03:58:02;0.30;99.90
44166;DHT22;30476;53.468;9.826;2023-03-01T04:00:40;0.30;99.90
44166;DHT22;30476;53.468;9.826;2023-03-01T04:03:08;0.30;99.90
44166;DHT22;30476;53.468;9.826;2023-03-01T04:05:35;0.30;99.90
44166;DHT22;30476;53.468;9.826;2023-03-01T04:08:01;0.30;99.90
44166;DHT22;30476;53.468;9.826;2023-03-01T04:10:32;0.30;99.90
44166;DHT22;30476;53.468;9.826;2023-03-01T04:12:58;0.40;99.90
44166;DHT22;30476;53.468;9.826;2023-03-01T04:15:25;0.40;99.90
44166;DHT22;30476;53.468;9.826;2023-03-01T04:17:53;0.40;99.90
44166;DHT22;30476;53.468;9.826;2023-03-01T04:20:22;0.50;99.90
44166;DHT22;30476;53.468;9.826;2023-03-01T04:25:26;0.50;99.90
44166;DHT22;30476;53.468;9.826;2023-03-01T04:27:52;0.60;99.90
44166;DHT22;30476;53.468;9.826;2023-03-01T04:30:18;0.60;99.90
44166;DHT22;30476;53.468;9.826;2023-03-01T04:32:44;0.70;99.90
44166;DHT22;30476;53.468;9.826;2023-03-01T04:35:09;0.70;99.90
44166;DHT22;30476;53.468;9.826;2023-03-01T04:37:35;0.70;99.90
44166;DHT22;30476;53.468;9.826;2023-03-01T04:40:02;0.80;99.90
44166;DHT22;30476;53.468;9.826;2023-03-01T04:42:42;0.80;99.90
44166;DHT22;30476;53.468;9.826;2023-03-01T04:45:08;0.80;99.90
44166;DHT22;30476;53.468;9.826;2023-03-01T04:47:42;0.90;99.90
44166;DHT22;30476;53.468;9.826;2023-03-01T04:50:15;0.90;99.90
44166;DHT22;30476;53.468;9.826;2023-03-01T04:52:42;1.00;99.90
44166;DHT22;30476;53.468;9.826;2023-03-01T04:55:08;1.00;99.90
44166;DHT22;30476;53.468;9.826;2023-03-01T04:57:34;1.00;99.90
44166;DHT22;30476;53.468;9.826;2023-03-01T05:00:00;1.10;99.90
44166;DHT22;30476;53.468;9.826;2023-03-01T05:02:26;1.10;99.90
44166;DHT22;30476;53.468;9.826;2023-03-01T05:04:52;1.10;99.90
44166;DHT22;30476;53.468;9.826;2023-03-01T05:07:23;1.20;99.90
44166;DHT22;30476;53.468;9.826;2023-03-01T05:09:50;1.20;99.90
44166;DHT22;30476;53.468;9.826;2023-03-01T05:12:16;1.20;99.90
44166;DHT22;30476;53.468;9.826;2023-03-01T05:14:41;1.20;99.90
44166;DHT22;30476;53.468;9.826;2023-03-01T05:17:07;1.30;99.90
44166;DHT22;30476;53.468;9.826;2023-03-01T05:19:34;1.30;99.90
44166;DHT22;30476;53.468;9.826;2023-03-01T05:21:59;1.30;99.90
44166;DHT22;30476;53.468;9.826;2023-03-01T05:24:33;1.40;99.90
44166;DHT22;30476;53.468;9.826;2023-03-01T05:27:00;1.40;99.90
44166;DHT22;30476;53.468;9.826;2023-03-01T05:29:27;1.40;99.90
44166;DHT22;30476;53.468;9.826;2023-03-01T05:31:55;1.40;99.90
44166;DHT22;30476;53.468;9.826;2023-03-01T05:34:30;1.40;99.90
44166;DHT22;30476;53.468;9.826;2023-03-01T05:36:57;1.50;99.90
44166;DHT22;30476;53.468;9.826;2023-03-01T05:39:24;1.50;99.90
44166;DHT22;30476;53.468;9.826;2023-03-01T05:41:59;1.50;99.90
44166;DHT22;30476;53.468;9.826;2023-03-01T05:44:26;1.50;99.90
44166;DHT22;30476;53.468;9.826;2023-03-01T05:46:52;1.50;99.90
44166;DHT22;30476;53.468;9.826;2023-03-01T05:49:19;1.60;99.90
44166;DHT22;30476;53.468;9.826;2023-03-01T05:51:50;1.60;99.90
44166;DHT22;30476;53.468;9.826;2023-03-01T05:54:16;1.60;99.90
44166;DHT22;30476;53.468;9.826;2023-03-01T05:56:43;1.70;99.90
44166;DHT22;30476;53.468;9.826;2023-03-01T05:59:09;1.70;99.90
44166;DHT22;30476;53.468;9.826;2023-03-01T06:01:36;1.70;99.90
44166;DHT22;30476;53.468;9.826;2023-03-01T06:04:03;1.80;99.90
44166;DHT22;30476;53.468;9.826;2023-03-01T06:06:29;1.80;99.90
44166;DHT22;30476;53.468;9.826;2023-03-01T06:08:58;1.80;99.90
44166;DHT22;30476;53.468;9.826;2023-03-01T06:11:24;1.80;99.90
44166;DHT22;30476;53.468;9.826;2023-03-01T06:13:50;1.90;99.90
44166;DHT22;30476;53.468;9.826;2023-03-01T06:16:16;1.90;99.90
44166;DHT22;30476;53.468;9.826;2023-03-01T06:18:42;1.90;99.90
44166;DHT22;30476;53.468;9.826;2023-03-01T06:21:08;1.90;99.90
44166;DHT22;30476;53.468;9.826;2023-03-01T06:23:34;2.00;99.90
44166;DHT22;30476;53.468;9.826;2023-03-01T06:26:04;2.00;99.90
44166;DHT22;30476;53.468;9.826;2023-03-01T06:28:30;2.00;99.90
44166;DHT22;30476;53.468;9.826;2023-03-01T06:30:56;2.10;99.90
44166;DHT22;30476;53.468;9.826;2023-03-01T06:33:22;2.10;99.90
44166;DHT22;30476;53.468;9.826;2023-03-01T06:35:50;2.10;99.90
44166;DHT22;30476;53.468;9.826;2023-03-01T06:38:16;2.20;99.90
44166;DHT22;30476;53.468;9.826;2023-03-01T06:40:45;2.20;99.90
44166;DHT22;30476;53.468;9.826;2023-03-01T06:43:17;2.20;99.90
44166;DHT22;30476;53.468;9.826;2023-03-01T06:45:42;2.20;99.90
44166;DHT22;30476;53.468;9.826;2023-03-01T06:48:08;2.20;99.90
44166;DHT22;30476;53.468;9.826;2023-03-01T06:50:35;2.30;99.90
44166;DHT22;30476;53.468;9.826;2023-03-01T06:53:01;2.30;99.90
44166;DHT22;30476;53.468;9.826;2023-03-01T06:55:28;2.30;99.90
44166;DHT22;30476;53.468;9.826;2023-03-01T06:57:55;2.40;99.90
44166;DHT22;30476;53.468;9.826;2023-03-01T07:00:22;2.40;99.90
44166;DHT22;30476;53.468;9.826;2023-03-01T07:02:48;2.40;99.90
44166;DHT22;30476;53.468;9.826;2023-03-01T07:05:14;2.50;99.90
44166;DHT22;30476;53.468;9.826;2023-03-01T07:07:39;2.50;99.90
44166;DHT22;30476;53.468;9.826;2023-03-01T07:10:06;2.50;99.90
44166;DHT22;30476;53.468;9.826;2023-03-01T07:12:32;2.60;99.90
44166;DHT22;30476;53.468;9.826;2023-03-01T07:14:58;2.60;99.90
44166;DHT22;30476;53.468;9.826;2023-03-01T07:17:24;2.60;99.90
44166;DHT22;30476;53.468;9.826;2023-03-01T07:19:50;2.60;99.90
44166;DHT22;30476;53.468;9.826;2023-03-01T07:22:16;2.60;99.90
44166;DHT22;30476;53.468;9.826;2023-03-01T07:24:43;2.70;99.90
44166;DHT22;30476;53.468;9.826;2023-03-01T07:27:09;2.70;99.90
44166;DHT22;30476;53.468;9.826;2023-03-01T07:29:35;2.70;99.90
44166;DHT22;30476;53.468;9.826;2023-03-01T07:32:05;2.70;99.90
44166;DHT22;30476;53.468;9.826;2023-03-01T07:34:31;2.80;99.90
44166;DHT22;30476;53.468;9.826;2023-03-01T07:36:57;2.90;99.90
44166;DHT22;30476;53.468;9.826;2023-03-01T07:39:22;2.90;99.90
44166;DHT22;30476;53.468;9.826;2023-03-01T07:41:49;2.90;99.90
44166;DHT22;30476;53.468;9.826;2023-03-01T07:44:15;2.90;99.90
44166;DHT22;30476;53.468;9.826;2023-03-01T07:46:43;2.90;99.90
44166;DHT22;30476;53.468;9.826;2023-03-01T07:49:10;3.00;99.90
44166;DHT22;30476;53.468;9.826;2023-03-01T07:51:36;3.10;99.90
44166;DHT22;30476;53.468;9.826;2023-03-01T07:54:02;3.10;99.90
44166;DHT22;30476;53.468;9.826;2023-03-01T07:56:27;3.10;99.90
44166;DHT22;30476;53.468;9.826;2023-03-01T07:58:53;3.20;99.90
44166;DHT22;30476;53.468;9.826;2023-03-01T08:01:20;3.20;99.90
44166;DHT22;30476;53.468;9.826;2023-03-01T08:03:46;3.30;99.90
44166;DHT22;30476;53.468;9.826;2023-03-01T08:06:15;3.30;99.90
44166;DHT22;30476;53.468;9.826;2023-03-01T08:08:41;3.40;99.90
44166;DHT22;30476;53.468;9.826;2023-03-01T08:11:09;3.40;99.90
44166;DHT22;30476;53.468;9.826;2023-03-01T08:13:35;3.50;99.90
44166;DHT22;30476;53.468;9.826;2023-03-01T08:16:06;3.50;99.90
44166;DHT22;30476;53.468;9.826;2023-03-01T08:18:32;3.60;99.90
44166;DHT22;30476;53.468;9.826;2023-03-01T08:21:16;3.60;99.90
44166;DHT22;30476;53.468;9.826;2023-03-01T08:23:42;3.70;99.90
44166;DHT22;30476;53.468;9.826;2023-03-01T08:28:34;3.70;99.90
44166;DHT22;30476;53.468;9.826;2023-03-01T08:31:01;3.80;99.90
44166;DHT22;30476;53.468;9.826;2023-03-01T08:33:27;3.80;99.90
44166;DHT22;30476;53.468;9.826;2023-03-01T08:36:04;3.90;99.90
44166;DHT22;30476;53.468;9.826;2023-03-01T08:38:33;4.00;99.90
44166;DHT22;30476;53.468;9.826;2023-03-01T08:41:01;4.00;99.90
44166;DHT22;30476;53.468;9.826;2023-03-01T08:43:27;4.00;99.90
44166;DHT22;30476;53.468;9.826;2023-03-01T08:45:53;4.10;99.90
44166;DHT22;30476;53.468;9.826;2023-03-01T08:48:19;4.20;99.90
44166;DHT22;30476;53.468;9.826;2023-03-01T08:50:44;4.20;99.90
44166;DHT22;30476;53.468;9.826;2023-03-01T08:53:10;4.20;99.90
44166;DHT22;30476;53.468;9.826;2023-03-01T08:55:36;4.20;99.90
44166;DHT22;30476;53.468;9.826;2023-03-01T08:58:02;4.30;99.90
44166;DHT22;30476;53.468;9.826;2023-03-01T09:00:28;4.30;99.90
44166;DHT22;30476;53.468;9.826;2023-03-01T09:02:54;4.40;99.90
44166;DHT22;30476;53.468;9.826;2023-03-01T09:05:20;4.40;99.90
44166;DHT22;30476;53.468;9.826;2023-03-01T09:07:45;4.40;99.90
44166;DHT22;30476;53.468;9.826;2023-03-01T09:10:11;4.40;99.90
44166;DHT22;30476;53.468;9.826;2023-03-01T09:12:37;4.50;99.90
44166;DHT22;30476;53.468;9.826;2023-03-01T09:15:03;4.50;99.90
44166;DHT22;30476;53.468;9.826;2023-03-01T09:17:29;4.50;99.90
44166;DHT22;30476;53.468;9.826;2023-03-01T09:19:55;4.60;99.90
44166;DHT22;30476;53.468;9.826;2023-03-01T09:22:21;4.60;99.90
44166;DHT22;30476;53.468;9.826;2023-03-01T09:24:46;4.60;99.90
44166;DHT22;30476;53.468;9.826;2023-03-01T09:27:12;4.50;99.90
44166;DHT22;30476;53.468;9.826;2023-03-01T09:29:40;4.50;99.90
44166;DHT22;30476;53.468;9.826;2023-03-01T09:32:05;4.50;99.90
44166;DHT22;30476;53.468;9.826;2023-03-01T09:34:33;4.60;99.90
44166;DHT22;30476;53.468;9.826;2023-03-01T09:37:19;4.60;99.90
44166;DHT22;30476;53.468;9.826;2023-03-01T09:39:45;4.70;99.90
44166;DHT22;30476;53.468;9.826;2023-03-01T09:42:12;4.80;99.90
44166;DHT22;30476;53.468;9.826;2023-03-01T09:44:40;4.90;99.90
44166;DHT22;30476;53.468;9.826;2023-03-01T09:47:29;4.90;99.90
44166;DHT22;30476;53.468;9.826;2023-03-01T09:53:00;5.00;99.90
44166;DHT22;30476;53.468;9.826;2023-03-01T09:55:40;5.10;99.90
44166;DHT22;30476;53.468;9.826;2023-03-01T09:58:41;5.20;99.90
44166;DHT22;30476;53.468;9.826;2023-03-01T10:01:20;5.30;99.90
44166;DHT22;30476;53.468;9.826;2023-03-01T10:04:17;5.30;99.90
44166;DHT22;30476;53.468;9.826;2023-03-01T10:07:39;5.40;99.90
44166;DHT22;30476;53.468;9.826;2023-03-01T10:09:38;5.50;99.90
44166;DHT22;30476;53.468;9.826;2023-03-01T10:12:10;5.60;99.90
44166;DHT22;30476;53.468;9.826;2023-03-01T10:15:00;5.60;99.90
44166;DHT22;30476;53.468;9.826;2023-03-01T10:17:56;5.80;99.90
44166;DHT22;30476;53.468;9.826;2023-03-01T10:20:33;5.90;99.90
44166;DHT22;30476;53.468;9.826;2023-03-01T10:23:08;6.00;99.90
44166;DHT22;30476;53.468;9.826;2023-03-01T10:28:50;6.10;99.90
44166;DHT22;30476;53.468;9.826;2023-03-01T10:31:27;6.10;99.90
44166;DHT22;30476;53.468;9.826;2023-03-01T10:34:16;6.20;99.90
44166;DHT22;30476;53.468;9.826;2023-03-01T10:36:45;6.20;99.90
44166;DHT22;30476;53.468;9.826;2023-03-01T10:39:18;6.30;99.90
44166;DHT22;30476;53.468;9.826;2023-03-01T10:47:00;6.50;99.90
44166;DHT22;30476;53.468;9.826;2023-03-01T10:49:29;6.70;99.90
44166;DHT22;30476;53.468;9.826;2023-03-01T10:51:55;6.80;99.90
44166;DHT22;30476;53.468;9.826;2023-03-01T10:54:31;6.90;99.90
44166;DHT22;30476;53.468;9.826;2023-03-01T10:56:59;7.10;99.90
44166;DHT22;30476;53.468;9.826;2023-03-01T11:02:22;7.40;99.90
44166;DHT22;30476;53.468;9.826;2023-03-01T11:05:13;7.50;99.90
44166;DHT22;30476;53.468;9.826;2023-03-01T11:07:48;7.80;99.90
44166;DHT22;30476;53.468;9.826;2023-03-01T11:10:22;8.00;99.90
44166;DHT22;30476;53.468;9.826;2023-03-01T11:12:48;8.30;99.90
44166;DHT22;30476;53.468;9.826;2023-03-01T11:15:26;8.50;99.90
44166;DHT22;30476;53.468;9.826;2023-03-01T11:17:53;8.50;99.90
44166;DHT22;30476;53.468;9.826;2023-03-01T11:20:38;8.70;99.90
44166;DHT22;30476;53.468;9.826;2023-03-01T11:23:12;8.90;99.90
44166;DHT22;30476;53.468;9.826;2023-03-01T11:25:40;9.00;99.90
44166;DHT22;30476;53.468;9.826;2023-03-01T11:28:14;9.10;99.90
44166;DHT22;30476;53.468;9.826;2023-03-01T11:30:51;9.20;99.90
44166;DHT22;30476;53.468;9.826;2023-03-01T11:36:27;9.40;99.90
44166;DHT22;30476;53.468;9.826;2023-03-01T11:38:53;9.60;99.90
44166;DHT22;30476;53.468;9.826;2023-03-01T11:41:28;9.80;99.90
44166;DHT22;30476;53.468;9.826;2023-03-01T11:44:16;9.90;99.90
44166;DHT22;30476;53.468;9.826;2023-03-01T11:52:18;10.40;99.90
44166;DHT22;30476;53.468;9.826;2023-03-01T11:55:17;10.60;99.90
44166;DHT22;30476;53.468;9.826;2023-03-01T12:06:04;11.50;99.90
44166;DHT22;30476;53.468;9.826;2023-03-01T12:14:19;11.80;99.90
44166;DHT22;30476;53.468;9.826;2023-03-01T12:17:20;11.80;99.90
44166;DHT22;30476;53.468;9.826;2023-03-01T12:37:25;12.30;99.70
44166;DHT22;30476;53.468;9.826;2023-03-01T12:40:30;12.40;99.60
44166;DHT22;30476;53.468;9.826;2023-03-01T12:43:07;12.40;99.70
44166;DHT22;30476;53.468;9.826;2023-03-01T12:45:47;12.50;98.50
44166;DHT22;30476;53.468;9.826;2023-03-01T12:48:31;12.50;98.60
44166;DHT22;30476;53.468;9.826;2023-03-01T12:51:04;12.60;98.50
44166;DHT22;30476;53.468;9.826;2023-03-01T12:53:39;12.50;98.40
44166;DHT22;30476;53.468;9.826;2023-03-01T12:56:15;12.60;98.30
44166;DHT22;30476;53.468;9.826;2023-03-01T12:58:54;12.70;98.00
44166;DHT22;30476;53.468;9.826;2023-03-01T13:01:33;12.70;98.10
44166;DHT22;30476;53.468;9.826;2023-03-01T13:07:00;12.80;98.30
44166;DHT22;30476;53.468;9.826;2023-03-01T13:12:01;12.80;98.20
44166;DHT22;30476;53.468;9.826;2023-03-01T13:14:39;12.80;97.90
44166;DHT22;30476;53.468;9.826;2023-03-01T13:17:30;12.90;97.70
44166;DHT22;30476;53.468;9.826;2023-03-01T13:19:58;12.90;97.70
44166;DHT22;30476;53.468;9.826;2023-03-01T13:22:27;12.80;97.60
44166;DHT22;30476;53.468;9.826;2023-03-01T13:25:03;12.80;97.60
44166;DHT22;30476;53.468;9.826;2023-03-01T13:27:37;12.90;97.50
44166;DHT22;30476;53.468;9.826;2023-03-01T13:30:03;12.90;97.70
44166;DHT22;30476;53.468;9.826;2023-03-01T13:32:36;12.90;97.70
44166;DHT22;30476;53.468;9.826;2023-03-01T13:37:40;13.10;97.30
44166;DHT22;30476;53.468;9.826;2023-03-01T13:42:53;13.20;97.40
44166;DHT22;30476;53.468;9.826;2023-03-01T13:45:21;13.20;97.20
44166;DHT22;30476;53.468;9.826;2023-03-01T13:47:52;13.20;96.70
44166;DHT22;30476;53.468;9.826;2023-03-01T13:50:23;13.30;96.40
44166;DHT22;30476;53.468;9.826;2023-03-01T13:53:00;13.20;96.80
44166;DHT22;30476;53.468;9.826;2023-03-01T13:55:36;13.10;96.90
44166;DHT22;30476;53.468;9.826;2023-03-01T13:58:24;13.00;97.00
44166;DHT22;30476;53.468;9.826;2023-03-01T14:01:04;13.10;96.60
44166;DHT22;30476;53.468;9.826;2023-03-01T14:03:33;13.20;96.00
44166;DHT22;30476;53.468;9.826;2023-03-01T14:06:12;13.10;96.40
44166;DHT22;30476;53.468;9.826;2023-03-01T14:08:39;13.10;95.60
44166;DHT22;30476;53.468;9.826;2023-03-01T14:11:38;13.10;95.90
44166;DHT22;30476;53.468;9.826;2023-03-01T14:14:23;13.00;96.30
44166;DHT22;30476;53.468;9.826;2023-03-01T14:19:57;13.00;95.90
44166;DHT22;30476;53.468;9.826;2023-03-01T14:22:34;12.90;95.70
44166;DHT22;30476;53.468;9.826;2023-03-01T14:25:05;12.90;95.60
44166;DHT22;30476;53.468;9.826;2023-03-01T14:27:39;12.80;96.00
44166;DHT22;30476;53.468;9.826;2023-03-01T14:30:21;12.70;95.80
44166;DHT22;30476;53.468;9.826;2023-03-01T14:33:00;12.50;96.00
44166;DHT22;30476;53.468;9.826;2023-03-01T14:35:29;12.40;96.30
44166;DHT22;30476;53.468;9.826;2023-03-01T14:37:56;12.30;96.30
44166;DHT22;30476;53.468;9.826;2023-03-01T14:40:24;12.30;96.60
44166;DHT22;30476;53.468;9.826;2023-03-01T14:42:51;12.10;96.50
44166;DHT22;30476;53.468;9.826;2023-03-01T14:45:18;12.00;96.70
44166;DHT22;30476;53.468;9.826;2023-03-01T14:47:44;11.90;97.40
44166;DHT22;30476;53.468;9.826;2023-03-01T14:50:26;11.80;97.30
44166;DHT22;30476;53.468;9.826;2023-03-01T14:53:01;11.70;97.20
44166;DHT22;30476;53.468;9.826;2023-03-01T14:55:34;11.60;97.70
44166;DHT22;30476;53.468;9.826;2023-03-01T14:58:04;11.40;97.70
44166;DHT22;30476;53.468;9.826;2023-03-01T15:00:32;11.40;98.20
44166;DHT22;30476;53.468;9.826;2023-03-01T15:03:05;11.20;98.20
44166;DHT22;30476;53.468;9.826;2023-03-01T15:05:35;11.10;98.30
44166;DHT22;30476;53.468;9.826;2023-03-01T15:08:02;11.00;98.40
44166;DHT22;30476;53.468;9.826;2023-03-01T15:10:34;10.90;98.70
44166;DHT22;30476;53.468;9.826;2023-03-01T15:13:24;10.80;98.80
44166;DHT22;30476;53.468;9.826;2023-03-01T15:15:51;10.60;98.90
44166;DHT22;30476;53.468;9.826;2023-03-01T15:18:22;10.60;99.10
44166;DHT22;30476;53.468;9.826;2023-03-01T15:20:51;10.40;99.50
44166;DHT22;30476;53.468;9.826;2023-03-01T15:23:24;10.30;99.60
44166;DHT22;30476;53.468;9.826;2023-03-01T15:25:52;10.30;99.70
44166;DHT22;30476;53.468;9.826;2023-03-01T15:28:27;10.10;99.60
44166;DHT22;30476;53.468;9.826;2023-03-01T15:30:58;10.00;99.90
44166;DHT22;30476;53.468;9.826;2023-03-01T15:35:54;9.80;99.90
44166;DHT22;30476;53.468;9.826;2023-03-01T15:41:03;9.60;99.90
44166;DHT22;30476;53.468;9.826;2023-03-01T15:43:43;9.50;99.90
44166;DHT22;30476;53.468;9.826;2023-03-01T15:46:21;9.30;99.90
44166;DHT22;30476;53.468;9.826;2023-03-01T15:48:55;9.20;99.90
44166;DHT22;30476;53.468;9.826;2023-03-01T15:51:33;9.20;99.90
44166;DHT22;30476;53.468;9.826;2023-03-01T15:54:06;9.00;99.90
44166;DHT22;30476;53.468;9.826;2023-03-01T15:56:32;9.00;99.90
44166;DHT22;30476;53.468;9.826;2023-03-01T15:58:59;8.90;99.90
44166;DHT22;30476;53.468;9.826;2023-03-01T16:01:25;8.90;99.90
44166;DHT22;30476;53.468;9.826;2023-03-01T16:03:51;8.80;99.90
44166;DHT22;30476;53.468;9.826;2023-03-01T16:06:19;8.70;99.90
44166;DHT22;30476;53.468;9.826;2023-03-01T16:08:45;8.60;99.90
44166;DHT22;30476;53.468;9.826;2023-03-01T16:11:18;8.50;99.90
44166;DHT22;30476;53.468;9.826;2023-03-01T16:13:44;8.50;99.90
44166;DHT22;30476;53.468;9.826;2023-03-01T16:16:12;8.40;99.90
44166;DHT22;30476;53.468;9.826;2023-03-01T16:18:41;8.30;99.90
44166;DHT22;30476;53.468;9.826;2023-03-01T16:21:12;8.30;99.90
44166;DHT22;30476;53.468;9.826;2023-03-01T16:23:38;8.20;99.90
44166;DHT22;30476;53.468;9.826;2023-03-01T16:26:04;8.10;99.90
44166;DHT22;30476;53.468;9.826;2023-03-01T16:28:30;8.00;99.90
44166;DHT22;30476;53.468;9.826;2023-03-01T16:30:56;8.00;99.90
44166;DHT22;30476;53.468;9.826;2023-03-01T16:33:22;8.00;99.90
44166;DHT22;30476;53.468;9.826;2023-03-01T16:35:47;7.90;99.90
44166;DHT22;30476;53.468;9.826;2023-03-01T16:38:14;7.80;99.90
44166;DHT22;30476;53.468;9.826;2023-03-01T16:40:47;7.80;99.90
44166;DHT22;30476;53.468;9.826;2023-03-01T16:43:13;7.70;99.90
44166;DHT22;30476;53.468;9.826;2023-03-01T16:45:39;7.70;99.90
44166;DHT22;30476;53.468;9.826;2023-03-01T16:48:06;7.60;99.90
44166;DHT22;30476;53.468;9.826;2023-03-01T16:50:32;7.50;99.90
44166;DHT22;30476;53.468;9.826;2023-03-01T16:52:58;7.50;99.90
44166;DHT22;30476;53.468;9.826;2023-03-01T16:55:24;7.40;99.90
44166;DHT22;30476;53.468;9.826;2023-03-01T16:57:49;7.30;99.90
44166;DHT22;30476;53.468;9.826;2023-03-01T17:00:16;7.20;99.90
44166;DHT22;30476;53.468;9.826;2023-03-01T17:02:43;7.10;99.90
44166;DHT22;30476;53.468;9.826;2023-03-01T17:05:09;7.10;99.90
44166;DHT22;30476;53.468;9.826;2023-03-01T17:07:37;7.00;99.90
44166;DHT22;30476;53.468;9.826;2023-03-01T17:10:05;6.90;99.90
44166;DHT22;30476;53.468;9.826;2023-03-01T17:12:31;6.90;99.90
44166;DHT22;30476;53.468;9.826;2023-03-01T17:14:58;6.80;99.90
44166;DHT22;30476;53.468;9.826;2023-03-01T17:17:23;6.70;99.90
44166;DHT22;30476;53.468;9.826;2023-03-01T17:19:49;6.60;99.90
44166;DHT22;30476;53.468;9.826;2023-03-01T17:22:16;6.60;99.90
44166;DHT22;30476;53.468;9.826;2023-03-01T17:24:43;6.50;99.90
44166;DHT22;30476;53.468;9.826;2023-03-01T17:27:09;6.50;99.90